createdAt,value
2022-12-03T00:02:18.843Z,8.63
2022-12-03T00:04:45.608Z,10.13
2022-12-03T00:07:12.062Z,8.20
2022-12-03T00:09:38.685Z,11.23
2022-12-03T00:12:05.268Z,11.23
2022-12-03T00:14:31.771Z,10.95
2022-12-03T00:16:58.224Z,11.15
2022-12-03T00:19:24.844Z,10.85
2022-12-03T00:21:51.430Z,9.90
2022-12-03T00:24:17.929Z,9.32
2022-12-03T00:26:44.466Z,9.88
2022-12-03T00:29:11.282Z,10.02
2022-12-03T00:31:37.901Z,11.07
2022-12-03T00:34:04.467Z,9.68
2022-12-03T00:36:30.946Z,11.80
2022-12-03T00:38:57.399Z,10.77
2022-12-03T00:41:23.863Z,9.70
2022-12-03T00:43:50.354Z,10.77
2022-12-03T00:46:21.095Z,10.10
2022-12-03T00:48:48.201Z,10.40
2022-12-03T00:51:18.259Z,10.88
2022-12-03T00:53:46.185Z,10.32
2022-12-03T00:56:12.846Z,11.25
2022-12-03T00:58:39.308Z,8.68
2022-12-03T01:01:05.915Z,11.18
2022-12-03T01:03:32.399Z,9.32
2022-12-03T01:05:59.011Z,9.65
2022-12-03T01:08:25.460Z,9.43
2022-12-03T01:10:51.996Z,10.27
2022-12-03T01:13:18.508Z,10.38
2022-12-03T01:15:45.009Z,9.95
2022-12-03T01:18:11.585Z,9.82
2022-12-03T01:20:38.689Z,9.75
2022-12-03T01:23:05.768Z,10.25
2022-12-03T01:25:32.348Z,11.15
2022-12-03T01:27:59.663Z,10.38
2022-12-03T01:30:26.103Z,11.25
2022-12-03T01:32:52.739Z,10.40
2022-12-03T01:35:19.239Z,10.80
2022-12-03T01:37:45.760Z,10.82
2022-12-03T01:40:19.763Z,8.98
2022-12-03T01:42:57.094Z,10.23
2022-12-03T01:47:53.605Z,8.48
2022-12-03T01:50:33.627Z,10.85
2022-12-03T01:53:04.820Z,8.75
2022-12-03T01:55:31.806Z,11.13
2022-12-03T01:58:01.866Z,9.15
2022-12-03T02:00:28.988Z,10.70
2022-12-03T02:02:57.918Z,9.82
2022-12-03T02:05:27.285Z,10.10
2022-12-03T02:07:53.917Z,9.40
2022-12-03T02:10:26.188Z,9.68
2022-12-03T02:13:00.907Z,8.73
2022-12-03T02:15:27.675Z,10.77
2022-12-03T02:17:55.365Z,10.02
2022-12-03T02:20:22.331Z,10.65
2022-12-03T02:23:05.255Z,10.57
2022-12-03T02:25:34.682Z,10.35
2022-12-03T02:28:02.798Z,9.35
2022-12-03T02:30:31.028Z,10.20
2022-12-03T02:32:58.244Z,12.90
2022-12-03T02:35:29.798Z,10.07
2022-12-03T02:38:02.596Z,10.65
2022-12-03T02:40:32.796Z,10.85
2022-12-03T02:43:02.463Z,11.48
2022-12-03T02:45:32.456Z,10.68
2022-12-03T02:48:39.404Z,10.70
2022-12-03T02:51:09.349Z,10.70
2022-12-03T02:53:44.392Z,13.02
2022-12-03T02:56:13.888Z,10.60
2022-12-03T02:58:41.960Z,11.48
2022-12-03T03:01:09.543Z,10.05
2022-12-03T03:03:37.564Z,12.20
2022-12-03T03:06:07.018Z,11.23
2022-12-03T03:08:34.276Z,11.23
2022-12-03T03:11:02.383Z,10.00
2022-12-03T03:13:31.115Z,12.68
2022-12-03T03:18:24.313Z,10.18
2022-12-03T03:20:51.151Z,11.38
2022-12-03T03:23:19.893Z,9.80
2022-12-03T03:26:10.415Z,12.15
2022-12-03T03:28:44.289Z,10.85
2022-12-03T03:31:14.057Z,11.35
2022-12-03T03:33:43.473Z,10.38
2022-12-03T03:36:10.305Z,11.18
2022-12-03T03:38:37.955Z,11.48
2022-12-03T03:41:05.950Z,10.25
2022-12-03T03:43:35.192Z,12.20
2022-12-03T03:46:04.806Z,11.30
2022-12-03T03:48:34.070Z,11.35
2022-12-03T03:51:03.724Z,11.68
2022-12-03T03:53:30.895Z,13.18
2022-12-03T03:55:57.537Z,11.93
2022-12-03T03:58:27.679Z,13.05
2022-12-03T04:00:54.397Z,13.55
2022-12-03T04:03:21.012Z,11.57
2022-12-03T04:05:47.885Z,12.38
2022-12-03T04:08:14.396Z,13.15
2022-12-03T04:10:59.608Z,12.43
2022-12-03T04:13:26.128Z,14.48
2022-12-03T04:15:52.743Z,14.07
2022-12-03T04:18:37.916Z,14.20
2022-12-03T04:21:23.152Z,13.95
2022-12-03T04:23:49.671Z,11.77
2022-12-03T04:26:34.734Z,14.40
2022-12-03T04:29:01.227Z,13.45
2022-12-03T04:31:49.396Z,14.00
2022-12-03T04:34:34.273Z,14.18
2022-12-03T04:37:00.810Z,14.48
2022-12-03T04:39:27.276Z,13.60
2022-12-03T04:41:53.808Z,12.95
2022-12-03T04:44:36.444Z,13.70
2022-12-03T04:47:17.775Z,13.13
2022-12-03T04:49:46.728Z,14.70
2022-12-03T04:52:14.937Z,15.02
2022-12-03T04:54:41.456Z,13.52
2022-12-03T04:57:09.291Z,12.77
2022-12-03T04:59:36.524Z,13.75
2022-12-03T05:02:04.092Z,14.68
2022-12-03T05:04:31.141Z,14.35
2022-12-03T05:07:00.783Z,11.80
2022-12-03T05:09:27.271Z,13.40
2022-12-03T05:11:53.839Z,11.38
2022-12-03T05:14:20.341Z,13.65
2022-12-03T05:16:46.911Z,12.63
2022-12-03T05:19:13.588Z,11.43
2022-12-03T05:21:40.052Z,12.52
2022-12-03T05:24:06.702Z,10.30
2022-12-03T05:26:33.238Z,10.95
2022-12-03T05:28:59.788Z,12.30
2022-12-03T05:31:26.759Z,12.73
2022-12-03T05:33:54.706Z,12.13
2022-12-03T05:36:21.394Z,12.68
2022-12-03T05:38:47.868Z,13.23
2022-12-03T05:41:32.904Z,11.10
2022-12-03T05:43:59.407Z,12.35
2022-12-03T05:46:25.909Z,13.18
2022-12-03T05:48:52.722Z,12.98
2022-12-03T05:51:19.193Z,12.07
2022-12-03T05:53:45.692Z,12.65
2022-12-03T05:56:12.463Z,12.88
2022-12-03T05:58:39.131Z,12.40
2022-12-03T06:01:05.770Z,12.82
2022-12-03T06:03:32.563Z,13.65
2022-12-03T06:05:59.380Z,14.02
2022-12-03T06:08:25.839Z,12.95
2022-12-03T06:10:52.375Z,12.75
2022-12-03T06:13:18.873Z,11.57
2022-12-03T06:15:45.659Z,12.32
2022-12-03T06:18:12.309Z,13.75
2022-12-03T06:20:39.156Z,13.27
2022-12-03T06:23:05.625Z,11.98
2022-12-03T06:25:32.282Z,13.27
2022-12-03T06:27:58.765Z,12.00
2022-12-03T06:30:25.199Z,12.85
2022-12-03T06:32:51.736Z,13.52
2022-12-03T06:35:18.168Z,14.27
2022-12-03T06:37:44.661Z,12.88
2022-12-03T06:40:11.869Z,12.25
2022-12-03T06:42:38.330Z,11.93
2022-12-03T06:45:05.265Z,12.07
2022-12-03T06:47:31.751Z,13.32
2022-12-03T06:49:58.278Z,12.68
2022-12-03T06:52:24.860Z,13.15
2022-12-03T06:54:51.457Z,11.07
2022-12-03T06:57:18.279Z,12.65
2022-12-03T06:59:44.950Z,12.98
2022-12-03T07:02:12.733Z,12.07
2022-12-03T07:04:43.423Z,12.30
2022-12-03T07:07:12.683Z,13.63
2022-12-03T07:09:39.207Z,13.43
2022-12-03T07:12:06.066Z,12.90
2022-12-03T07:14:32.712Z,13.77
2022-12-03T07:16:59.285Z,12.90
2022-12-03T07:19:32.077Z,12.18
2022-12-03T07:21:59.284Z,12.27
2022-12-03T07:24:25.837Z,13.32
2022-12-03T07:26:52.476Z,13.98
2022-12-03T07:29:19.046Z,12.88
2022-12-03T07:31:45.706Z,11.05
2022-12-03T07:34:12.340Z,14.02
2022-12-03T07:36:39.123Z,13.98
2022-12-03T07:39:05.760Z,12.32
2022-12-03T07:41:32.332Z,14.88
2022-12-03T07:43:58.834Z,13.80
2022-12-03T07:46:25.516Z,12.05
2022-12-03T07:48:52.159Z,12.88
2022-12-03T07:51:18.757Z,13.95
2022-12-03T07:53:45.263Z,14.15
2022-12-03T07:56:11.917Z,15.38
2022-12-03T07:58:38.751Z,12.43
2022-12-03T08:01:05.416Z,14.32
2022-12-03T08:03:31.986Z,12.57
2022-12-03T08:05:59.233Z,13.73
2022-12-03T08:08:29.672Z,14.32
2022-12-03T08:13:57.469Z,15.05
2022-12-03T08:16:23.995Z,15.40
2022-12-03T08:18:51.476Z,14.90
2022-12-03T08:21:21.116Z,14.32
2022-12-03T08:23:48.227Z,14.18
2022-12-03T08:26:24.974Z,15.90
2022-12-03T08:28:52.482Z,14.98
2022-12-03T08:31:32.319Z,14.50
2022-12-03T08:34:15.424Z,15.63
2022-12-03T08:36:42.015Z,15.65
2022-12-03T08:39:34.733Z,16.02
2022-12-03T08:42:41.859Z,14.57
2022-12-03T08:45:39.293Z,14.60
2022-12-03T08:48:22.357Z,14.70
2022-12-03T08:50:48.856Z,13.55
2022-12-03T08:53:29.171Z,15.70
2022-12-03T08:56:19.183Z,15.05
2022-12-03T08:58:48.542Z,15.27
2022-12-03T09:01:41.982Z,11.80
2022-12-03T09:04:23.295Z,14.23
2022-12-03T09:06:51.401Z,14.50
2022-12-03T09:09:18.232Z,13.63
2022-12-03T09:11:45.172Z,13.30
2022-12-03T09:14:18.130Z,14.25
2022-12-03T09:16:45.299Z,15.13
2022-12-03T09:19:11.842Z,12.45
2022-12-03T09:21:38.273Z,13.48
2022-12-03T09:24:04.944Z,13.30
2022-12-03T09:26:31.456Z,11.85
2022-12-03T09:28:58.055Z,14.07
2022-12-03T09:31:24.585Z,10.88
2022-12-03T09:33:51.246Z,13.60
2022-12-03T09:36:17.902Z,11.52
2022-12-03T09:38:47.592Z,13.88
2022-12-03T09:41:14.531Z,13.43
2022-12-03T09:44:03.294Z,12.52
2022-12-03T09:46:29.281Z,10.95
2022-12-03T09:48:55.928Z,11.80
2022-12-03T09:51:27.994Z,13.65
2022-12-03T09:53:54.499Z,15.30
2022-12-03T09:56:23.308Z,12.38
2022-12-03T09:58:50.520Z,13.77
2022-12-03T10:01:17.951Z,11.80
2022-12-03T10:03:47.849Z,13.90
2022-12-03T10:06:20.885Z,12.35
2022-12-03T10:08:49.945Z,11.85
2022-12-03T10:11:18.539Z,12.10
2022-12-03T10:13:46.196Z,13.45
2022-12-03T10:16:15.843Z,12.38
2022-12-03T10:18:48.581Z,12.43
2022-12-03T10:21:32.427Z,13.85
2022-12-03T10:24:20.272Z,14.20
2022-12-03T10:26:48.868Z,12.55
2022-12-03T10:31:45.431Z,12.85
2022-12-03T10:34:11.977Z,13.73
2022-12-03T10:36:38.635Z,13.65
2022-12-03T10:39:15.731Z,13.23
2022-12-03T10:41:43.943Z,13.00
2022-12-03T10:44:23.742Z,13.68
2022-12-03T10:47:20.983Z,13.90
2022-12-03T10:50:03.201Z,10.55
2022-12-03T10:52:29.909Z,12.68
2022-12-03T10:54:56.785Z,12.88
2022-12-03T10:57:23.850Z,13.75
2022-12-03T10:59:50.900Z,13.82
2022-12-03T11:02:23.444Z,13.43
2022-12-03T11:04:51.279Z,13.30
2022-12-03T11:07:20.012Z,14.32
2022-12-03T11:09:49.742Z,13.68
2022-12-03T11:12:20.835Z,14.80
2022-12-03T11:14:54.430Z,13.68
2022-12-03T11:17:51.561Z,14.52
2022-12-03T11:20:22.798Z,14.32
2022-12-03T11:22:56.259Z,13.25
2022-12-03T11:25:25.876Z,13.57
2022-12-03T11:28:10.450Z,14.65
2022-12-03T11:30:49.273Z,13.95
2022-12-03T11:33:23.668Z,14.02
2022-12-03T11:36:10.641Z,13.02
2022-12-03T11:38:37.228Z,13.73
2022-12-03T11:41:15.805Z,14.25
2022-12-03T11:43:58.377Z,14.18
2022-12-03T11:46:39.212Z,13.18
2022-12-03T11:51:55.880Z,13.13
2022-12-03T11:54:24.200Z,14.75
2022-12-03T11:56:52.528Z,13.63
2022-12-03T11:59:19.668Z,14.13
2022-12-03T12:01:46.419Z,14.00
2022-12-03T12:04:34.356Z,15.07
2022-12-03T12:07:01.562Z,14.70
2022-12-03T12:09:51.052Z,13.00
2022-12-03T12:12:31.222Z,15.90
2022-12-03T12:14:59.088Z,14.23
2022-12-03T12:17:34.483Z,14.68
2022-12-03T12:20:12.499Z,15.65
2022-12-03T12:22:39.368Z,14.55
2022-12-03T12:25:39.704Z,15.15
2022-12-03T12:28:06.846Z,14.95
2022-12-03T12:30:33.560Z,14.85
2022-12-03T12:33:23.312Z,15.00
2022-12-03T12:35:50.823Z,16.65
2022-12-03T12:38:22.576Z,15.20
2022-12-03T12:40:50.372Z,15.77
2022-12-03T12:43:25.752Z,14.95
2022-12-03T12:45:54.907Z,15.30
2022-12-03T12:48:27.168Z,15.52
2022-12-03T12:51:20.825Z,16.95
2022-12-03T12:53:49.040Z,17.65
2022-12-03T12:56:27.393Z,16.10
2022-12-03T12:58:56.461Z,15.85
2022-12-03T13:01:31.526Z,16.10
2022-12-03T13:03:59.448Z,16.98
2022-12-03T13:06:30.065Z,16.42
2022-12-03T13:08:57.383Z,15.15
2022-12-03T13:11:42.314Z,15.57
2022-12-03T13:14:20.197Z,14.73
2022-12-03T13:16:48.243Z,15.27
2022-12-03T13:19:43.155Z,17.00
2022-12-03T13:22:19.017Z,15.27
2022-12-03T13:24:53.532Z,15.57
2022-12-03T13:27:19.972Z,16.85
2022-12-03T13:29:50.879Z,16.48
2022-12-03T13:32:23.324Z,14.43
2022-12-03T13:34:52.656Z,15.95
2022-12-03T13:37:28.136Z,14.95
2022-12-03T13:39:57.196Z,13.25
2022-12-03T13:42:46.549Z,16.00
2022-12-03T13:45:16.061Z,14.85
2022-12-03T13:47:48.763Z,14.93
2022-12-03T13:50:32.467Z,14.27
2022-12-03T13:53:01.496Z,15.63
2022-12-03T13:55:31.158Z,14.77
2022-12-03T13:57:58.235Z,14.68
2022-12-03T14:00:24.894Z,15.38
2022-12-03T14:02:51.586Z,14.75
2022-12-03T14:05:18.268Z,16.83
2022-12-03T14:07:44.890Z,13.60
2022-12-03T14:10:12.007Z,16.58
2022-12-03T14:12:38.842Z,14.98
2022-12-03T14:15:06.445Z,17.55
2022-12-03T14:17:50.894Z,14.32
2022-12-03T14:20:18.123Z,15.18
2022-12-03T14:22:44.661Z,15.88
2022-12-03T14:25:11.763Z,16.23
2022-12-03T14:27:38.339Z,16.98
2022-12-03T14:30:05.575Z,15.20
2022-12-03T14:32:31.991Z,16.00
2022-12-03T14:34:58.594Z,15.80
2022-12-03T14:37:25.059Z,11.75
2022-12-03T14:39:55.064Z,13.93
2022-12-03T14:42:21.646Z,14.15
2022-12-03T14:44:52.082Z,14.13
2022-12-03T14:47:22.550Z,12.90
2022-12-03T14:49:49.883Z,14.65
2022-12-03T14:52:17.228Z,13.07
2022-12-03T14:54:44.574Z,14.60
2022-12-03T14:57:12.861Z,14.48
2022-12-03T14:59:43.705Z,14.20
2022-12-03T15:02:11.374Z,14.95
2022-12-03T15:04:39.587Z,12.82
2022-12-03T15:07:06.175Z,14.02
2022-12-03T15:09:32.690Z,12.60
2022-12-03T15:11:59.998Z,12.98
2022-12-03T15:14:26.820Z,12.63
2022-12-03T15:16:53.545Z,14.15
2022-12-03T15:19:20.200Z,13.23
2022-12-03T15:21:46.663Z,14.38
2022-12-03T15:24:13.246Z,13.63
2022-12-03T15:26:39.718Z,15.85
2022-12-03T15:29:06.276Z,14.95
2022-12-03T15:31:46.635Z,15.52
2022-12-03T15:34:22.133Z,13.90
2022-12-03T15:36:55.332Z,12.05
2022-12-03T15:39:22.355Z,15.18
2022-12-03T15:41:49.205Z,15.57
2022-12-03T15:44:17.275Z,14.68
2022-12-03T15:46:46.864Z,13.57
2022-12-03T15:49:16.139Z,13.85
2022-12-03T15:51:45.389Z,16.00
2022-12-03T15:54:12.531Z,16.75
2022-12-03T15:56:39.311Z,16.38
2022-12-03T15:59:06.139Z,15.35
2022-12-03T16:01:33.142Z,18.23
2022-12-03T16:04:05.115Z,17.45
2022-12-03T16:06:32.046Z,16.05
2022-12-03T16:09:47.264Z,29.52
2022-12-03T16:12:16.136Z,21.02
2022-12-03T16:17:30.275Z,16.05
2022-12-03T16:20:07.168Z,17.20
2022-12-03T16:22:36.060Z,16.55
2022-12-03T16:25:08.891Z,18.90
2022-12-03T16:27:37.532Z,18.17
2022-12-03T16:30:06.024Z,17.38
2022-12-03T16:32:38.029Z,17.23
2022-12-03T16:35:05.724Z,17.65
2022-12-03T16:37:38.937Z,18.17
2022-12-03T16:40:12.279Z,18.05
2022-12-03T16:42:41.543Z,16.05
2022-12-03T16:45:11.284Z,14.68
2022-12-03T16:47:46.394Z,16.23
2022-12-03T16:50:23.048Z,16.95
2022-12-03T16:55:45.611Z,15.32
2022-12-03T16:58:22.114Z,15.98
2022-12-03T17:00:53.564Z,16.33
2022-12-03T17:03:26.637Z,14.93
2022-12-03T17:06:01.032Z,14.15
2022-12-03T17:08:33.337Z,15.43
2022-12-03T17:11:13.788Z,13.68
2022-12-03T17:13:45.634Z,14.32
2022-12-03T17:16:21.250Z,12.65
2022-12-03T17:18:48.348Z,13.60
2022-12-03T17:21:18.768Z,14.32
2022-12-03T17:23:48.954Z,12.98
2022-12-03T17:26:15.924Z,16.50
2022-12-03T17:28:44.259Z,13.80
2022-12-03T17:31:14.795Z,14.55
2022-12-03T17:33:44.099Z,15.27
2022-12-03T17:36:17.150Z,13.85
2022-12-03T17:38:50.007Z,13.18
2022-12-03T17:41:21.387Z,14.10
2022-12-03T17:43:50.555Z,12.65
2022-12-03T17:46:17.547Z,15.32
2022-12-03T17:48:47.205Z,14.60
2022-12-03T17:51:19.288Z,15.18
2022-12-03T17:53:51.715Z,16.25
2022-12-03T17:56:27.753Z,15.43
2022-12-03T17:58:54.582Z,15.63
2022-12-03T18:01:21.474Z,13.48
2022-12-03T18:03:53.151Z,15.95
2022-12-03T18:06:24.003Z,15.68
2022-12-03T18:08:54.551Z,16.20
2022-12-03T18:11:29.035Z,17.02
2022-12-03T18:13:55.962Z,16.10
2022-12-03T18:16:29.180Z,15.48
2022-12-03T18:19:06.313Z,13.82
2022-12-03T18:21:42.553Z,16.42
2022-12-03T18:24:46.233Z,15.90
2022-12-03T18:27:16.018Z,15.23
2022-12-03T18:29:51.415Z,15.25
2022-12-03T18:32:29.397Z,18.98
2022-12-03T18:35:01.706Z,17.50
2022-12-03T18:37:30.139Z,15.20
2022-12-03T18:39:58.174Z,15.93
2022-12-03T18:42:30.028Z,16.95
2022-12-03T18:44:57.321Z,17.45
2022-12-03T18:47:31.042Z,17.75
2022-12-03T18:50:00.389Z,16.17
2022-12-03T18:52:33.445Z,17.00
2022-12-03T18:55:00.391Z,17.25
2022-12-03T18:57:27.436Z,18.60
2022-12-03T19:00:03.531Z,16.02
2022-12-03T19:03:01.245Z,17.98
2022-12-03T19:05:25.039Z,19.77
2022-12-03T19:07:55.150Z,15.65
2022-12-03T19:10:28.272Z,16.98
2022-12-03T19:12:59.890Z,16.65
2022-12-03T19:15:35.377Z,19.27
2022-12-03T19:18:07.892Z,17.00
2022-12-03T19:20:39.523Z,17.08
2022-12-03T19:23:08.738Z,17.02
2022-12-03T19:25:44.916Z,15.88
2022-12-03T19:28:11.939Z,16.83
2022-12-03T19:30:41.397Z,15.65
2022-12-03T19:33:18.064Z,16.60
2022-12-03T19:35:49.288Z,14.75
2022-12-03T19:38:18.471Z,16.67
2022-12-03T19:41:05.438Z,17.55
2022-12-03T19:43:37.560Z,14.75
2022-12-03T19:46:10.986Z,15.73
2022-12-03T19:48:40.919Z,16.48
2022-12-03T19:51:32.918Z,14.88
2022-12-03T19:54:05.064Z,14.65
2022-12-03T19:56:34.704Z,14.48
2022-12-03T19:59:01.793Z,15.52
2022-12-03T20:01:40.454Z,13.95
2022-12-03T20:04:11.709Z,13.88
2022-12-03T20:06:50.522Z,15.82
2022-12-03T20:09:28.327Z,15.18
2022-12-03T20:14:34.325Z,13.75
2022-12-03T20:17:13.271Z,13.57
2022-12-03T20:19:40.233Z,13.15
2022-12-03T20:22:09.047Z,15.25
2022-12-03T20:24:35.651Z,13.73
2022-12-03T20:27:02.212Z,15.10
2022-12-03T20:29:30.223Z,14.02
2022-12-03T20:31:59.106Z,15.20
2022-12-03T20:34:25.619Z,14.60
2022-12-03T20:36:52.089Z,15.07
2022-12-03T20:39:18.583Z,14.80
2022-12-03T20:41:45.224Z,14.65
2022-12-03T20:44:14.046Z,14.98
2022-12-03T20:46:40.615Z,16.90
2022-12-03T20:49:07.239Z,15.43
2022-12-03T20:51:34.264Z,15.20
2022-12-03T20:54:01.740Z,15.35
2022-12-03T20:56:31.675Z,13.90
2022-12-03T20:59:07.074Z,14.50
2022-12-03T21:01:35.912Z,15.38
2022-12-03T21:04:04.257Z,14.75
2022-12-03T21:06:31.057Z,14.15
2022-12-03T21:08:58.813Z,13.75
2022-12-03T21:11:29.719Z,14.75
2022-12-03T21:13:58.942Z,14.57
2022-12-03T21:16:59.144Z,14.57
2022-12-03T21:19:20.198Z,14.60
2022-12-03T21:21:46.955Z,14.80
2022-12-03T21:24:15.881Z,13.82
2022-12-03T21:26:45.512Z,15.68
2022-12-03T21:29:12.110Z,13.88
2022-12-03T21:31:41.086Z,15.10
2022-12-03T21:34:19.862Z,15.05
2022-12-03T21:36:46.588Z,14.52
2022-12-03T21:39:14.438Z,16.58
2022-12-03T21:41:41.036Z,14.27
2022-12-03T21:44:36.748Z,14.30
2022-12-03T21:47:11.391Z,15.30
2022-12-03T21:49:42.720Z,14.25
2022-12-03T21:52:12.465Z,14.73
2022-12-03T21:54:43.236Z,15.45
2022-12-03T21:57:10.195Z,15.48
2022-12-03T21:59:40.173Z,14.43
2022-12-03T22:02:27.776Z,15.55
2022-12-03T22:04:54.754Z,14.32
2022-12-03T22:07:23.569Z,14.68
2022-12-03T22:12:26.348Z,14.90
2022-12-03T22:14:57.992Z,15.43
2022-12-03T22:17:27.734Z,14.32
2022-12-03T22:20:08.258Z,15.38
2022-12-03T22:22:35.264Z,18.23
2022-12-03T22:25:05.384Z,15.75
2022-12-03T22:27:32.479Z,16.27
2022-12-03T22:29:59.414Z,15.90
2022-12-03T22:32:34.005Z,15.45
2022-12-03T22:35:03.127Z,15.50
2022-12-03T22:37:35.489Z,16.13
2022-12-03T22:40:06.093Z,17.35
2022-12-03T22:42:32.767Z,15.07
2022-12-03T22:44:59.366Z,15.38
2022-12-03T22:47:26.536Z,16.80
2022-12-03T22:49:56.517Z,17.45
2022-12-03T22:52:24.025Z,14.73
2022-12-03T22:54:54.225Z,16.73
2022-12-03T22:57:28.886Z,16.92
2022-12-03T23:00:00.497Z,17.98
2022-12-03T23:02:34.056Z,16.13
2022-12-03T23:05:01.261Z,16.70
2022-12-03T23:07:28.602Z,15.75
2022-12-03T23:09:55.567Z,17.45
2022-12-03T23:12:22.337Z,15.02
2022-12-03T23:14:52.780Z,15.77
2022-12-03T23:17:19.264Z,15.80
2022-12-03T23:19:45.865Z,15.30
2022-12-03T23:22:15.155Z,16.25
2022-12-03T23:24:41.631Z,16.23
2022-12-03T23:27:08.119Z,15.93
2022-12-03T23:29:35.164Z,16.17
2022-12-03T23:32:01.636Z,17.40
2022-12-03T23:34:28.216Z,18.27
2022-12-03T23:36:54.868Z,16.23
2022-12-03T23:39:21.385Z,17.65
2022-12-03T23:41:51.062Z,17.08
2022-12-03T23:44:17.629Z,16.05
2022-12-03T23:46:44.192Z,15.98
2022-12-03T23:49:10.841Z,15.30
2022-12-03T23:51:37.343Z,15.70
2022-12-03T23:54:03.884Z,16.17
2022-12-03T23:56:30.782Z,16.52
2022-12-03T23:58:57.970Z,15.25
